sensor_id;sensor_type;location;lat;lon;timestamp;temperature;humidity
22364;DHT22;11349;53.412;-1.328;2022-07-23T00:01:03;15.20;99.90
22364;DHT22;11349;53.412;-1.328;2022-07-23T00:03:29;15.10;99.90
22364;DHT22;11349;53.412;-1.328;2022-07-23T00:05:54;15.10;99.90
22364;DHT22;11349;53.412;-1.328;2022-07-23T00:08:20;15.10;99.90
22364;DHT22;11349;53.412;-1.328;2022-07-23T00:10:46;15.00;99.90
22364;DHT22;11349;53.412;-1.328;2022-07-23T00:13:11;15.00;99.90
22364;DHT22;11349;53.412;-1.328;2022-07-23T00:15:37;15.00;99.90
22364;DHT22;11349;53.412;-1.328;2022-07-23T00:18:03;15.00;99.90
22364;DHT22;11349;53.412;-1.328;2022-07-23T00:20:29;15.00;99.90
22364;DHT22;11349;53.412;-1.328;2022-07-23T00:22:55;15.00;99.90
22364;DHT22;11349;53.412;-1.328;2022-07-23T00:25:22;15.00;99.90
22364;DHT22;11349;53.412;-1.328;2022-07-23T00:27:48;14.90;99.90
22364;DHT22;11349;53.412;-1.328;2022-07-23T00:30:14;14.90;99.90
22364;DHT22;11349;53.412;-1.328;2022-07-23T00:35:12;14.90;99.90
22364;DHT22;11349;53.412;-1.328;2022-07-23T00:37:38;14.90;99.90
22364;DHT22;11349;53.412;-1.328;2022-07-23T00:40:04;14.90;99.90
22364;DHT22;11349;53.412;-1.328;2022-07-23T00:42:31;14.90;99.90
22364;DHT22;11349;53.412;-1.328;2022-07-23T00:44:57;14.90;99.90
22364;DHT22;11349;53.412;-1.328;2022-07-23T00:47:23;14.90;99.90
22364;DHT22;11349;53.412;-1.328;2022-07-23T00:49:48;14.90;99.90
22364;DHT22;11349;53.412;-1.328;2022-07-23T00:52:14;14.90;99.90
22364;DHT22;11349;53.412;-1.328;2022-07-23T00:54:40;14.90;99.90
22364;DHT22;11349;53.412;-1.328;2022-07-23T00:57:06;14.90;99.90
22364;DHT22;11349;53.412;-1.328;2022-07-23T00:59:31;14.90;99.90
22364;DHT22;11349;53.412;-1.328;2022-07-23T01:01:57;14.90;99.90
22364;DHT22;11349;53.412;-1.328;2022-07-23T01:04:23;14.90;99.90
22364;DHT22;11349;53.412;-1.328;2022-07-23T01:06:49;14.90;99.90
22364;DHT22;11349;53.412;-1.328;2022-07-23T01:09:15;14.80;99.90
22364;DHT22;11349;53.412;-1.328;2022-07-23T01:11:41;14.90;99.90
22364;DHT22;11349;53.412;-1.328;2022-07-23T01:14:10;14.90;99.90
22364;DHT22;11349;53.412;-1.328;2022-07-23T01:16:36;14.90;99.90
22364;DHT22;11349;53.412;-1.328;2022-07-23T01:19:02;14.90;99.90
22364;DHT22;11349;53.412;-1.328;2022-07-23T01:21:30;14.80;99.90
22364;DHT22;11349;53.412;-1.328;2022-07-23T01:23:56;14.80;99.90
22364;DHT22;11349;53.412;-1.328;2022-07-23T01:26:22;14.80;99.90
22364;DHT22;11349;53.412;-1.328;2022-07-23T01:28:47;14.80;99.90
22364;DHT22;11349;53.412;-1.328;2022-07-23T01:31:13;14.80;99.90
22364;DHT22;11349;53.412;-1.328;2022-07-23T01:33:38;14.80;99.90
22364;DHT22;11349;53.412;-1.328;2022-07-23T01:36:04;14.80;99.90
22364;DHT22;11349;53.412;-1.328;2022-07-23T01:38:30;14.80;99.90
22364;DHT22;11349;53.412;-1.328;2022-07-23T01:40:56;14.80;99.90
22364;DHT22;11349;53.412;-1.328;2022-07-23T01:43:21;14.70;99.90
22364;DHT22;11349;53.412;-1.328;2022-07-23T01:45:47;14.70;99.90
22364;DHT22;11349;53.412;-1.328;2022-07-23T01:48:13;14.70;99.90
22364;DHT22;11349;53.412;-1.328;2022-07-23T01:50:38;14.70;99.90
22364;DHT22;11349;53.412;-1.328;2022-07-23T01:53:04;14.70;99.90
22364;DHT22;11349;53.412;-1.328;2022-07-23T01:55:30;14.70;99.90
22364;DHT22;11349;53.412;-1.328;2022-07-23T01:57:55;14.70;99.90
22364;DHT22;11349;53.412;-1.328;2022-07-23T02:00:21;14.70;99.90
22364;DHT22;11349;53.412;-1.328;2022-07-23T02:02:47;14.70;99.90
22364;DHT22;11349;53.412;-1.328;2022-07-23T02:05:12;14.70;99.90
22364;DHT22;11349;53.412;-1.328;2022-07-23T02:07:38;14.70;99.90
22364;DHT22;11349;53.412;-1.328;2022-07-23T02:10:04;14.70;99.90
22364;DHT22;11349;53.412;-1.328;2022-07-23T02:12:30;14.70;99.90
22364;DHT22;11349;53.412;-1.328;2022-07-23T02:14:56;14.70;99.90
22364;DHT22;11349;53.412;-1.328;2022-07-23T02:17:22;14.70;99.90
22364;DHT22;11349;53.412;-1.328;2022-07-23T02:19:47;14.70;99.90
22364;DHT22;11349;53.412;-1.328;2022-07-23T02:22:13;14.70;99.90
22364;DHT22;11349;53.412;-1.328;2022-07-23T02:24:38;14.70;99.90
22364;DHT22;11349;53.412;-1.328;2022-07-23T02:27:04;14.70;99.90
22364;DHT22;11349;53.412;-1.328;2022-07-23T02:29:30;14.80;99.90
22364;DHT22;11349;53.412;-1.328;2022-07-23T02:31:55;14.80;99.90
22364;DHT22;11349;53.412;-1.328;2022-07-23T02:34:21;14.80;99.90
22364;DHT22;11349;53.412;-1.328;2022-07-23T02:36:47;14.80;99.90
22364;DHT22;11349;53.412;-1.328;2022-07-23T02:39:12;14.80;99.90
22364;DHT22;11349;53.412;-1.328;2022-07-23T02:41:39;14.70;99.90
22364;DHT22;11349;53.412;-1.328;2022-07-23T02:44:05;14.70;99.90
22364;DHT22;11349;53.412;-1.328;2022-07-23T02:46:31;14.70;99.90
22364;DHT22;11349;53.412;-1.328;2022-07-23T02:48:56;14.70;99.90
22364;DHT22;11349;53.412;-1.328;2022-07-23T02:51:24;14.70;99.90
22364;DHT22;11349;53.412;-1.328;2022-07-23T02:53:50;14.80;99.90
22364;DHT22;11349;53.412;-1.328;2022-07-23T02:56:16;14.80;99.90
22364;DHT22;11349;53.412;-1.328;2022-07-23T02:58:41;14.80;99.90
22364;DHT22;11349;53.412;-1.328;2022-07-23T03:01:07;14.80;99.90
22364;DHT22;11349;53.412;-1.328;2022-07-23T03:03:36;14.80;99.90
22364;DHT22;11349;53.412;-1.328;2022-07-23T03:06:01;14.70;99.90
22364;DHT22;11349;53.412;-1.328;2022-07-23T03:08:27;14.80;99.90
22364;DHT22;11349;53.412;-1.328;2022-07-23T03:10:53;14.80;99.90
22364;DHT22;11349;53.412;-1.328;2022-07-23T03:13:18;14.80;99.90
22364;DHT22;11349;53.412;-1.328;2022-07-23T03:15:44;14.70;99.90
22364;DHT22;11349;53.412;-1.328;2022-07-23T03:18:10;14.70;99.90
22364;DHT22;11349;53.412;-1.328;2022-07-23T03:20:35;14.60;99.90
22364;DHT22;11349;53.412;-1.328;2022-07-23T03:23:01;14.60;99.90
22364;DHT22;11349;53.412;-1.328;2022-07-23T03:25:27;14.60;99.90
22364;DHT22;11349;53.412;-1.328;2022-07-23T03:27:53;14.50;99.90
22364;DHT22;11349;53.412;-1.328;2022-07-23T03:30:18;14.50;99.90
22364;DHT22;11349;53.412;-1.328;2022-07-23T03:32:44;14.60;99.90
22364;DHT22;11349;53.412;-1.328;2022-07-23T03:35:10;14.50;99.90
22364;DHT22;11349;53.412;-1.328;2022-07-23T03:37:36;14.40;99.90
22364;DHT22;11349;53.412;-1.328;2022-07-23T03:40:02;14.40;99.90
22364;DHT22;11349;53.412;-1.328;2022-07-23T03:42:27;14.30;99.90
22364;DHT22;11349;53.412;-1.328;2022-07-23T03:44:53;14.30;99.90
22364;DHT22;11349;53.412;-1.328;2022-07-23T03:47:19;14.30;99.90
22364;DHT22;11349;53.412;-1.328;2022-07-23T03:49:47;14.30;99.90
22364;DHT22;11349;53.412;-1.328;2022-07-23T03:52:13;14.20;99.90
22364;DHT22;11349;53.412;-1.328;2022-07-23T03:54:39;14.20;99.90
22364;DHT22;11349;53.412;-1.328;2022-07-23T03:57:05;14.10;99.90
22364;DHT22;11349;53.412;-1.328;2022-07-23T03:59:30;14.10;99.90
22364;DHT22;11349;53.412;-1.328;2022-07-23T04:01:56;14.10;99.90
22364;DHT22;11349;53.412;-1.328;2022-07-23T04:04:22;14.00;99.90
22364;DHT22;11349;53.412;-1.328;2022-07-23T04:06:48;14.00;99.90
22364;DHT22;11349;53.412;-1.328;2022-07-23T04:09:13;14.00;99.90
22364;DHT22;11349;53.412;-1.328;2022-07-23T04:11:39;13.90;99.90
22364;DHT22;11349;53.412;-1.328;2022-07-23T04:14:05;13.90;99.90
22364;DHT22;11349;53.412;-1.328;2022-07-23T04:16:31;13.90;99.90
22364;DHT22;11349;53.412;-1.328;2022-07-23T04:18:57;13.90;99.90
22364;DHT22;11349;53.412;-1.328;2022-07-23T04:21:23;13.80;99.90
22364;DHT22;11349;53.412;-1.328;2022-07-23T04:23:49;13.80;99.90
22364;DHT22;11349;53.412;-1.328;2022-07-23T04:26:15;13.70;99.90
22364;DHT22;11349;53.412;-1.328;2022-07-23T04:28:41;13.80;99.90
22364;DHT22;11349;53.412;-1.328;2022-07-23T04:31:07;13.80;99.90
22364;DHT22;11349;53.412;-1.328;2022-07-23T04:33:33;13.70;99.90
22364;DHT22;11349;53.412;-1.328;2022-07-23T04:35:58;13.70;99.90
22364;DHT22;11349;53.412;-1.328;2022-07-23T04:38:24;13.70;99.90
22364;DHT22;11349;53.412;-1.328;2022-07-23T04:40:50;13.70;99.90
22364;DHT22;11349;53.412;-1.328;2022-07-23T04:43:16;13.70;99.90
22364;DHT22;11349;53.412;-1.328;2022-07-23T04:45:41;13.60;99.90
22364;DHT22;11349;53.412;-1.328;2022-07-23T04:48:07;13.60;99.90
22364;DHT22;11349;53.412;-1.328;2022-07-23T04:50:33;13.70;99.90
22364;DHT22;11349;53.412;-1.328;2022-07-23T04:53:01;13.70;99.90
22364;DHT22;11349;53.412;-1.328;2022-07-23T04:55:28;13.70;99.90
22364;DHT22;11349;53.412;-1.328;2022-07-23T04:57:53;13.70;99.90
22364;DHT22;11349;53.412;-1.328;2022-07-23T05:00:19;13.70;99.90
22364;DHT22;11349;53.412;-1.328;2022-07-23T05:02:45;13.70;99.90
22364;DHT22;11349;53.412;-1.328;2022-07-23T05:05:10;13.70;99.90
22364;DHT22;11349;53.412;-1.328;2022-07-23T05:07:36;13.80;99.90
22364;DHT22;11349;53.412;-1.328;2022-07-23T05:10:02;13.80;99.90
22364;DHT22;11349;53.412;-1.328;2022-07-23T05:12:28;13.80;99.90
22364;DHT22;11349;53.412;-1.328;2022-07-23T05:14:53;13.90;99.90
22364;DHT22;11349;53.412;-1.328;2022-07-23T05:17:19;13.90;99.90
22364;DHT22;11349;53.412;-1.328;2022-07-23T05:19:45;13.90;99.90
22364;DHT22;11349;53.412;-1.328;2022-07-23T05:22:10;13.90;99.90
22364;DHT22;11349;53.412;-1.328;2022-07-23T05:24:36;14.00;99.90
22364;DHT22;11349;53.412;-1.328;2022-07-23T05:27:02;14.00;99.90
22364;DHT22;11349;53.412;-1.328;2022-07-23T05:29:27;14.10;99.90
22364;DHT22;11349;53.412;-1.328;2022-07-23T05:31:53;14.10;99.90
22364;DHT22;11349;53.412;-1.328;2022-07-23T05:34:19;14.20;99.90
22364;DHT22;11349;53.412;-1.328;2022-07-23T05:36:44;14.30;99.90
22364;DHT22;11349;53.412;-1.328;2022-07-23T05:39:10;14.40;99.90
22364;DHT22;11349;53.412;-1.328;2022-07-23T05:41:36;14.50;99.90
22364;DHT22;11349;53.412;-1.328;2022-07-23T05:44:02;14.70;99.90
22364;DHT22;11349;53.412;-1.328;2022-07-23T05:46:28;14.70;99.90
22364;DHT22;11349;53.412;-1.328;2022-07-23T05:48:53;14.80;99.90
22364;DHT22;11349;53.412;-1.328;2022-07-23T05:51:23;14.80;99.90
22364;DHT22;11349;53.412;-1.328;2022-07-23T05:53:50;14.90;99.90
22364;DHT22;11349;53.412;-1.328;2022-07-23T05:56:16;14.90;99.90
22364;DHT22;11349;53.412;-1.328;2022-07-23T05:58:42;15.00;99.90
22364;DHT22;11349;53.412;-1.328;2022-07-23T06:01:08;15.00;99.90
22364;DHT22;11349;53.412;-1.328;2022-07-23T06:03:34;15.20;99.90
22364;DHT22;11349;53.412;-1.328;2022-07-23T06:06:00;15.20;99.90
22364;DHT22;11349;53.412;-1.328;2022-07-23T06:08:26;15.30;99.90
22364;DHT22;11349;53.412;-1.328;2022-07-23T06:10:51;15.30;99.90
22364;DHT22;11349;53.412;-1.328;2022-07-23T06:13:18;15.30;99.90
22364;DHT22;11349;53.412;-1.328;2022-07-23T06:15:44;15.40;99.90
22364;DHT22;11349;53.412;-1.328;2022-07-23T06:18:09;15.40;99.90
22364;DHT22;11349;53.412;-1.328;2022-07-23T06:20:35;15.60;99.90
22364;DHT22;11349;53.412;-1.328;2022-07-23T06:23:01;15.50;99.90
22364;DHT22;11349;53.412;-1.328;2022-07-23T06:25:27;15.50;99.90
22364;DHT22;11349;53.412;-1.328;2022-07-23T06:27:52;15.60;99.90
22364;DHT22;11349;53.412;-1.328;2022-07-23T06:30:18;15.70;99.90
22364;DHT22;11349;53.412;-1.328;2022-07-23T06:32:45;15.90;99.90
22364;DHT22;11349;53.412;-1.328;2022-07-23T06:35:11;16.00;99.90
22364;DHT22;11349;53.412;-1.328;2022-07-23T06:37:37;16.20;99.90
22364;DHT22;11349;53.412;-1.328;2022-07-23T06:40:03;16.30;99.90
22364;DHT22;11349;53.412;-1.328;2022-07-23T06:42:29;16.30;99.90
22364;DHT22;11349;53.412;-1.328;2022-07-23T06:44:55;16.50;99.90
22364;DHT22;11349;53.412;-1.328;2022-07-23T06:47:21;16.60;99.90
22364;DHT22;11349;53.412;-1.328;2022-07-23T06:49:46;16.70;99.90
22364;DHT22;11349;53.412;-1.328;2022-07-23T06:52:12;16.90;99.90
22364;DHT22;11349;53.412;-1.328;2022-07-23T06:54:38;17.00;99.90
22364;DHT22;11349;53.412;-1.328;2022-07-23T06:57:04;17.10;99.90
22364;DHT22;11349;53.412;-1.328;2022-07-23T06:59:30;17.30;99.90
22364;DHT22;11349;53.412;-1.328;2022-07-23T07:01:56;17.50;99.90
22364;DHT22;11349;53.412;-1.328;2022-07-23T07:04:23;17.80;99.90
22364;DHT22;11349;53.412;-1.328;2022-07-23T07:06:50;18.00;99.90
22364;DHT22;11349;53.412;-1.328;2022-07-23T07:09:15;18.20;99.90
22364;DHT22;11349;53.412;-1.328;2022-07-23T07:11:41;18.40;99.90
22364;DHT22;11349;53.412;-1.328;2022-07-23T07:14:07;18.70;99.90
22364;DHT22;11349;53.412;-1.328;2022-07-23T07:16:33;19.40;99.90
22364;DHT22;11349;53.412;-1.328;2022-07-23T07:18:59;19.60;49.10
22364;DHT22;11349;53.412;-1.328;2022-07-23T07:21:25;19.50;51.30
22364;DHT22;11349;53.412;-1.328;2022-07-23T07:23:51;19.40;7.90
22364;DHT22;11349;53.412;-1.328;2022-07-23T07:26:17;19.20;1.00
22364;DHT22;11349;53.412;-1.328;2022-07-23T07:28:43;19.40;57.90
22364;DHT22;11349;53.412;-1.328;2022-07-23T07:31:09;19.80;95.70
22364;DHT22;11349;53.412;-1.328;2022-07-23T07:33:35;20.00;46.90
22364;DHT22;11349;53.412;-1.328;2022-07-23T07:36:01;20.20;36.50
22364;DHT22;11349;53.412;-1.328;2022-07-23T07:38:27;20.30;1.00
22364;DHT22;11349;53.412;-1.328;2022-07-23T07:40:52;20.30;40.60
22364;DHT22;11349;53.412;-1.328;2022-07-23T07:43:18;20.40;1.00
22364;DHT22;11349;53.412;-1.328;2022-07-23T07:45:44;20.30;1.00
22364;DHT22;11349;53.412;-1.328;2022-07-23T07:48:10;20.60;1.00
22364;DHT22;11349;53.412;-1.328;2022-07-23T07:50:36;20.60;1.00
22364;DHT22;11349;53.412;-1.328;2022-07-23T07:53:02;20.60;1.00
22364;DHT22;11349;53.412;-1.328;2022-07-23T07:55:28;20.60;1.00
22364;DHT22;11349;53.412;-1.328;2022-07-23T07:57:54;20.70;1.00
22364;DHT22;11349;53.412;-1.328;2022-07-23T08:00:20;21.00;1.00
22364;DHT22;11349;53.412;-1.328;2022-07-23T08:02:48;21.20;1.00
22364;DHT22;11349;53.412;-1.328;2022-07-23T08:05:18;21.20;1.00
22364;DHT22;11349;53.412;-1.328;2022-07-23T08:07:43;21.10;1.00
22364;DHT22;11349;53.412;-1.328;2022-07-23T08:10:10;21.30;1.00
22364;DHT22;11349;53.412;-1.328;2022-07-23T08:12:47;21.20;1.00
22364;DHT22;11349;53.412;-1.328;2022-07-23T08:15:16;21.30;99.90
22364;DHT22;11349;53.412;-1.328;2022-07-23T08:17:43;21.00;99.90
22364;DHT22;11349;53.412;-1.328;2022-07-23T08:20:13;21.20;1.00
22364;DHT22;11349;53.412;-1.328;2022-07-23T08:22:47;21.30;99.90
22364;DHT22;11349;53.412;-1.328;2022-07-23T08:25:14;21.50;99.90
22364;DHT22;11349;53.412;-1.328;2022-07-23T08:27:40;21.50;1.00
22364;DHT22;11349;53.412;-1.328;2022-07-23T08:30:07;21.60;99.90
22364;DHT22;11349;53.412;-1.328;2022-07-23T08:32:33;21.80;99.90
22364;DHT22;11349;53.412;-1.328;2022-07-23T08:34:59;21.90;99.90
22364;DHT22;11349;53.412;-1.328;2022-07-23T08:37:25;21.90;99.90
22364;DHT22;11349;53.412;-1.328;2022-07-23T08:39:51;21.40;99.90
22364;DHT22;11349;53.412;-1.328;2022-07-23T08:42:18;21.40;1.00
22364;DHT22;11349;53.412;-1.328;2022-07-23T08:44:46;21.70;99.90
22364;DHT22;11349;53.412;-1.328;2022-07-23T08:47:14;21.50;99.90
22364;DHT22;11349;53.412;-1.328;2022-07-23T08:49:41;21.60;99.90
22364;DHT22;11349;53.412;-1.328;2022-07-23T08:52:08;21.50;99.90
22364;DHT22;11349;53.412;-1.328;2022-07-23T08:54:35;21.70;1.00
22364;DHT22;11349;53.412;-1.328;2022-07-23T08:57:01;21.80;99.90
22364;DHT22;11349;53.412;-1.328;2022-07-23T08:59:27;21.60;99.90
22364;DHT22;11349;53.412;-1.328;2022-07-23T09:01:54;21.40;99.90
22364;DHT22;11349;53.412;-1.328;2022-07-23T09:04:20;21.30;99.90
22364;DHT22;11349;53.412;-1.328;2022-07-23T09:06:46;21.50;99.90
22364;DHT22;11349;53.412;-1.328;2022-07-23T09:09:20;21.50;99.90
22364;DHT22;11349;53.412;-1.328;2022-07-23T09:11:48;21.60;99.90
22364;DHT22;11349;53.412;-1.328;2022-07-23T09:14:14;21.70;99.90
22364;DHT22;11349;53.412;-1.328;2022-07-23T09:16:40;21.60;99.90
22364;DHT22;11349;53.412;-1.328;2022-07-23T09:19:07;21.80;99.90
22364;DHT22;11349;53.412;-1.328;2022-07-23T09:21:35;21.90;99.90
22364;DHT22;11349;53.412;-1.328;2022-07-23T09:24:10;21.80;99.90
22364;DHT22;11349;53.412;-1.328;2022-07-23T09:26:45;21.50;99.90
22364;DHT22;11349;53.412;-1.328;2022-07-23T09:29:24;21.50;99.90
22364;DHT22;11349;53.412;-1.328;2022-07-23T09:32:01;21.60;99.90
22364;DHT22;11349;53.412;-1.328;2022-07-23T09:34:34;21.50;99.90
22364;DHT22;11349;53.412;-1.328;2022-07-23T09:37:14;21.60;99.90
22364;DHT22;11349;53.412;-1.328;2022-07-23T09:39:41;21.60;99.90
22364;DHT22;11349;53.412;-1.328;2022-07-23T09:42:25;21.60;99.90
22364;DHT22;11349;53.412;-1.328;2022-07-23T09:44:53;21.50;99.90
22364;DHT22;11349;53.412;-1.328;2022-07-23T09:47:21;21.40;99.90
22364;DHT22;11349;53.412;-1.328;2022-07-23T09:50:01;21.30;99.90
22364;DHT22;11349;53.412;-1.328;2022-07-23T09:52:33;21.40;99.90
22364;DHT22;11349;53.412;-1.328;2022-07-23T09:55:01;21.60;99.90
22364;DHT22;11349;53.412;-1.328;2022-07-23T09:57:27;21.70;99.90
22364;DHT22;11349;53.412;-1.328;2022-07-23T09:59:57;21.80;99.90
22364;DHT22;11349;53.412;-1.328;2022-07-23T10:02:24;22.00;99.90
22364;DHT22;11349;53.412;-1.328;2022-07-23T10:04:53;21.70;99.90
22364;DHT22;11349;53.412;-1.328;2022-07-23T10:07:23;21.80;99.90
22364;DHT22;11349;53.412;-1.328;2022-07-23T10:09:52;21.70;99.90
22364;DHT22;11349;53.412;-1.328;2022-07-23T10:12:20;21.60;99.90
22364;DHT22;11349;53.412;-1.328;2022-07-23T10:14:46;21.60;99.90
22364;DHT22;11349;53.412;-1.328;2022-07-23T10:17:13;21.60;99.90
22364;DHT22;11349;53.412;-1.328;2022-07-23T10:19:40;21.50;99.90
22364;DHT22;11349;53.412;-1.328;2022-07-23T10:22:15;21.50;99.90
22364;DHT22;11349;53.412;-1.328;2022-07-23T10:30:43;21.70;99.90
22364;DHT22;11349;53.412;-1.328;2022-07-23T10:36:07;22.10;99.90
22364;DHT22;11349;53.412;-1.328;2022-07-23T10:38:40;22.10;99.90
22364;DHT22;11349;53.412;-1.328;2022-07-23T10:41:09;21.90;99.90
22364;DHT22;11349;53.412;-1.328;2022-07-23T10:43:35;22.00;99.90
22364;DHT22;11349;53.412;-1.328;2022-07-23T10:49:28;22.00;99.90
22364;DHT22;11349;53.412;-1.328;2022-07-23T10:57:48;22.20;99.90
22364;DHT22;11349;53.412;-1.328;2022-07-23T11:00:23;22.10;99.90
22364;DHT22;11349;53.412;-1.328;2022-07-23T11:02:52;22.10;99.90
22364;DHT22;11349;53.412;-1.328;2022-07-23T11:05:21;22.10;99.90
22364;DHT22;11349;53.412;-1.328;2022-07-23T11:10:46;22.10;99.90
22364;DHT22;11349;53.412;-1.328;2022-07-23T11:26:48;22.60;99.90
22364;DHT22;11349;53.412;-1.328;2022-07-23T11:32:05;22.30;99.90
22364;DHT22;11349;53.412;-1.328;2022-07-23T11:34:32;22.30;99.90
22364;DHT22;11349;53.412;-1.328;2022-07-23T11:37:00;22.40;99.90
22364;DHT22;11349;53.412;-1.328;2022-07-23T11:39:28;22.40;99.90
22364;DHT22;11349;53.412;-1.328;2022-07-23T11:41:55;22.50;99.90
22364;DHT22;11349;53.412;-1.328;2022-07-23T11:44:39;22.50;99.90
22364;DHT22;11349;53.412;-1.328;2022-07-23T11:47:08;22.40;99.90
22364;DHT22;11349;53.412;-1.328;2022-07-23T11:49:35;22.40;99.90
22364;DHT22;11349;53.412;-1.328;2022-07-23T11:52:06;22.50;85.20
22364;DHT22;11349;53.412;-1.328;2022-07-23T11:54:34;22.50;99.90
22364;DHT22;11349;53.412;-1.328;2022-07-23T11:57:02;22.40;99.00
22364;DHT22;11349;53.412;-1.328;2022-07-23T11:59:31;22.20;99.90
22364;DHT22;11349;53.412;-1.328;2022-07-23T12:02:03;22.20;99.90
22364;DHT22;11349;53.412;-1.328;2022-07-23T12:04:40;22.40;99.90
22364;DHT22;11349;53.412;-1.328;2022-07-23T12:07:30;22.50;97.30
22364;DHT22;11349;53.412;-1.328;2022-07-23T12:09:59;22.40;66.90
22364;DHT22;11349;53.412;-1.328;2022-07-23T12:12:25;22.40;97.40
22364;DHT22;11349;53.412;-1.328;2022-07-23T12:14:54;22.30;87.90
22364;DHT22;11349;53.412;-1.328;2022-07-23T12:17:22;22.20;64.40
22364;DHT22;11349;53.412;-1.328;2022-07-23T12:19:54;22.30;73.60
22364;DHT22;11349;53.412;-1.328;2022-07-23T12:22:23;22.30;97.80
22364;DHT22;11349;53.412;-1.328;2022-07-23T12:27:24;22.40;73.60
22364;DHT22;11349;53.412;-1.328;2022-07-23T12:29:50;22.40;62.70
22364;DHT22;11349;53.412;-1.328;2022-07-23T12:32:27;22.40;69.50
22364;DHT22;11349;53.412;-1.328;2022-07-23T12:35:08;22.30;92.00
22364;DHT22;11349;53.412;-1.328;2022-07-23T12:37:37;22.30;94.50
22364;DHT22;11349;53.412;-1.328;2022-07-23T12:40:30;22.30;97.30
22364;DHT22;11349;53.412;-1.328;2022-07-23T12:43:02;22.30;72.10
22364;DHT22;11349;53.412;-1.328;2022-07-23T12:45:48;22.40;54.40
22364;DHT22;11349;53.412;-1.328;2022-07-23T12:48:28;22.40;89.10
22364;DHT22;11349;53.412;-1.328;2022-07-23T12:51:00;22.40;95.30
22364;DHT22;11349;53.412;-1.328;2022-07-23T12:58:52;22.40;76.40
22364;DHT22;11349;53.412;-1.328;2022-07-23T13:04:13;22.60;1.00
22364;DHT22;11349;53.412;-1.328;2022-07-23T13:06:44;22.70;2.00
22364;DHT22;11349;53.412;-1.328;2022-07-23T13:09:13;22.60;25.70
22364;DHT22;11349;53.412;-1.328;2022-07-23T13:11:40;22.50;20.50
22364;DHT22;11349;53.412;-1.328;2022-07-23T13:14:07;22.50;22.40
22364;DHT22;11349;53.412;-1.328;2022-07-23T13:16:33;22.60;1.00
22364;DHT22;11349;53.412;-1.328;2022-07-23T13:19:00;22.40;28.90
22364;DHT22;11349;53.412;-1.328;2022-07-23T13:21:27;22.50;36.20
22364;DHT22;11349;53.412;-1.328;2022-07-23T13:23:54;22.40;44.50
22364;DHT22;11349;53.412;-1.328;2022-07-23T13:26:20;22.50;15.70
22364;DHT22;11349;53.412;-1.328;2022-07-23T13:28:46;22.50;14.10
22364;DHT22;11349;53.412;-1.328;2022-07-23T13:31:13;22.40;30.40
22364;DHT22;11349;53.412;-1.328;2022-07-23T13:33:39;22.50;47.80
22364;DHT22;11349;53.412;-1.328;2022-07-23T13:36:05;22.50;55.70
22364;DHT22;11349;53.412;-1.328;2022-07-23T13:38:31;22.50;30.00
22364;DHT22;11349;53.412;-1.328;2022-07-23T13:40:57;22.40;19.70
22364;DHT22;11349;53.412;-1.328;2022-07-23T13:43:25;22.40;28.70
22364;DHT22;11349;53.412;-1.328;2022-07-23T13:45:51;22.40;20.90
22364;DHT22;11349;53.412;-1.328;2022-07-23T13:48:18;22.40;1.00
22364;DHT22;11349;53.412;-1.328;2022-07-23T13:50:45;22.40;12.40
22364;DHT22;11349;53.412;-1.328;2022-07-23T13:53:17;22.40;20.20
22364;DHT22;11349;53.412;-1.328;2022-07-23T13:55:43;22.40;1.60
22364;DHT22;11349;53.412;-1.328;2022-07-23T13:58:10;22.40;2.70
22364;DHT22;11349;53.412;-1.328;2022-07-23T14:00:39;22.40;13.10
22364;DHT22;11349;53.412;-1.328;2022-07-23T14:03:06;22.30;17.70
22364;DHT22;11349;53.412;-1.328;2022-07-23T14:05:32;22.40;20.80
22364;DHT22;11349;53.412;-1.328;2022-07-23T14:07:58;22.40;27.30
22364;DHT22;11349;53.412;-1.328;2022-07-23T14:10:24;22.40;27.70
22364;DHT22;11349;53.412;-1.328;2022-07-23T14:12:52;22.50;6.80
22364;DHT22;11349;53.412;-1.328;2022-07-23T14:15:23;22.50;1.00
22364;DHT22;11349;53.412;-1.328;2022-07-23T14:17:50;22.50;15.20
22364;DHT22;11349;53.412;-1.328;2022-07-23T14:20:16;22.50;6.80
22364;DHT22;11349;53.412;-1.328;2022-07-23T14:22:42;22.40;3.60
22364;DHT22;11349;53.412;-1.328;2022-07-23T14:25:09;22.40;15.90
22364;DHT22;11349;53.412;-1.328;2022-07-23T14:27:35;22.50;18.80
22364;DHT22;11349;53.412;-1.328;2022-07-23T14:30:04;22.50;3.70
22364;DHT22;11349;53.412;-1.328;2022-07-23T14:32:30;22.50;9.10
22364;DHT22;11349;53.412;-1.328;2022-07-23T14:34:56;22.50;1.00
22364;DHT22;11349;53.412;-1.328;2022-07-23T14:37:22;22.40;3.50
22364;DHT22;11349;53.412;-1.328;2022-07-23T14:39:49;22.40;11.50
22364;DHT22;11349;53.412;-1.328;2022-07-23T14:42:15;22.40;8.00
22364;DHT22;11349;53.412;-1.328;2022-07-23T14:44:41;22.40;1.00
22364;DHT22;11349;53.412;-1.328;2022-07-23T14:47:08;22.40;4.50
22364;DHT22;11349;53.412;-1.328;2022-07-23T14:49:34;22.50;1.00
22364;DHT22;11349;53.412;-1.328;2022-07-23T14:52:00;22.50;1.00
22364;DHT22;11349;53.412;-1.328;2022-07-23T14:54:27;22.60;1.00
22364;DHT22;11349;53.412;-1.328;2022-07-23T14:56:55;22.50;1.00
22364;DHT22;11349;53.412;-1.328;2022-07-23T14:59:21;22.50;1.00
22364;DHT22;11349;53.412;-1.328;2022-07-23T15:01:47;22.50;1.00
22364;DHT22;11349;53.412;-1.328;2022-07-23T15:04:13;22.50;1.00
22364;DHT22;11349;53.412;-1.328;2022-07-23T15:06:43;22.50;1.00
22364;DHT22;11349;53.412;-1.328;2022-07-23T15:09:09;22.50;1.00
22364;DHT22;11349;53.412;-1.328;2022-07-23T15:11:34;22.50;1.00
22364;DHT22;11349;53.412;-1.328;2022-07-23T15:14:02;22.60;1.00
22364;DHT22;11349;53.412;-1.328;2022-07-23T15:16:28;22.50;1.00
22364;DHT22;11349;53.412;-1.328;2022-07-23T15:18:54;22.50;1.00
22364;DHT22;11349;53.412;-1.328;2022-07-23T15:21:20;22.60;1.00
22364;DHT22;11349;53.412;-1.328;2022-07-23T15:23:46;22.60;1.00
22364;DHT22;11349;53.412;-1.328;2022-07-23T15:26:12;22.60;1.00
22364;DHT22;11349;53.412;-1.328;2022-07-23T15:28:41;22.60;1.00
22364;DHT22;11349;53.412;-1.328;2022-07-23T15:31:07;22.60;1.00
22364;DHT22;11349;53.412;-1.328;2022-07-23T15:33:33;22.50;1.00
22364;DHT22;11349;53.412;-1.328;2022-07-23T15:36:00;22.50;1.00
22364;DHT22;11349;53.412;-1.328;2022-07-23T15:38:26;22.50;1.00
22364;DHT22;11349;53.412;-1.328;2022-07-23T15:40:54;22.50;1.00
22364;DHT22;11349;53.412;-1.328;2022-07-23T15:43:21;22.50;1.00
22364;DHT22;11349;53.412;-1.328;2022-07-23T15:45:48;22.50;1.00
22364;DHT22;11349;53.412;-1.328;2022-07-23T15:48:14;22.50;1.00
22364;DHT22;11349;53.412;-1.328;2022-07-23T15:50:40;22.50;1.00
22364;DHT22;11349;53.412;-1.328;2022-07-23T15:53:06;22.60;1.00
22364;DHT22;11349;53.412;-1.328;2022-07-23T15:55:32;22.60;1.00
22364;DHT22;11349;53.412;-1.328;2022-07-23T15:57:58;22.50;1.00
22364;DHT22;11349;53.412;-1.328;2022-07-23T16:00:24;22.50;1.00
22364;DHT22;11349;53.412;-1.328;2022-07-23T16:02:50;22.50;1.00
22364;DHT22;11349;53.412;-1.328;2022-07-23T16:05:15;22.60;1.00
22364;DHT22;11349;53.412;-1.328;2022-07-23T16:08:03;22.50;1.00
22364;DHT22;11349;53.412;-1.328;2022-07-23T16:10:29;22.60;1.00